You are not logged in, Click here to log in
金浦國際機場 / RKSS 韓國首爾江西區
ICAO: RKSS Country: 韓國首爾江西區
Latitude: 37.5587 Longitude: 126.794
Total Arrivals: 11 Total Departures: 10
Latest Arrival: FS9040 (ZSPD-RKSS)Arthur. Kung Latest Departure: CI261 (RKSS-RCSS)ALAN. LIU
Scenery:
METAR : RKSS 110500Z 07011KT 040V110 9999 SCT040 BKN070 BKN200 30/20 Q1007 NOSIG

金浦國際機場